sensor_id;sensor_type;location;lat;lon;timestamp;pressure;altitude;pressure_sealevel;temperature
69545;BMP180;56766;52.260;20.746;2023-01-08T00:01:16;100595.00;;;5.20
69545;BMP180;56766;52.260;20.746;2023-01-08T00:03:48;100589.60;;;5.20
69545;BMP180;56766;52.260;20.746;2023-01-08T00:06:18;100588.80;;;5.20
69545;BMP180;56766;52.260;20.746;2023-01-08T00:08:47;100592.20;;;5.20
69545;BMP180;56766;52.260;20.746;2023-01-08T00:11:14;100592.40;;;5.20
69545;BMP180;56766;52.260;20.746;2023-01-08T00:13:41;100591.00;;;5.20
69545;BMP180;56766;52.260;20.746;2023-01-08T00:16:12;100596.80;;;5.20
69545;BMP180;56766;52.260;20.746;2023-01-08T00:18:40;100595.00;;;5.20
69545;BMP180;56766;52.260;20.746;2023-01-08T00:21:34;100588.00;;;5.20
69545;BMP180;56766;52.260;20.746;2023-01-08T00:24:00;100590.60;;;5.16
69545;BMP180;56766;52.260;20.746;2023-01-08T00:26:27;100581.40;;;5.12
69545;BMP180;56766;52.260;20.746;2023-01-08T00:28:54;100576.80;;;5.16
69545;BMP180;56766;52.260;20.746;2023-01-08T00:31:22;100583.00;;;5.20
69545;BMP180;56766;52.260;20.746;2023-01-08T00:33:51;100575.40;;;5.20
69545;BMP180;56766;52.260;20.746;2023-01-08T00:36:18;100571.80;;;5.18
69545;BMP180;56766;52.260;20.746;2023-01-08T00:38:46;100570.60;;;5.16
69545;BMP180;56766;52.260;20.746;2023-01-08T00:41:15;100567.00;;;5.10
69545;BMP180;56766;52.260;20.746;2023-01-08T00:43:42;100569.00;;;5.10
69545;BMP180;56766;52.260;20.746;2023-01-08T00:46:09;100569.80;;;5.10
69545;BMP180;56766;52.260;20.746;2023-01-08T00:48:36;100573.00;;;5.10
69545;BMP180;56766;52.260;20.746;2023-01-08T00:51:08;100562.80;;;5.10
69545;BMP180;56766;52.260;20.746;2023-01-08T00:53:35;100566.40;;;5.00
69545;BMP180;56766;52.260;20.746;2023-01-08T00:56:07;100565.40;;;5.00
69545;BMP180;56766;52.260;20.746;2023-01-08T00:58:35;100562.40;;;4.90
69545;BMP180;56766;52.260;20.746;2023-01-08T01:01:12;100567.00;;;4.90
69545;BMP180;56766;52.260;20.746;2023-01-08T01:03:40;100569.80;;;4.80
69545;BMP180;56766;52.260;20.746;2023-01-08T01:06:10;100560.80;;;4.80
69545;BMP180;56766;52.260;20.746;2023-01-08T01:08:37;100555.80;;;4.72
69545;BMP180;56766;52.260;20.746;2023-01-08T01:11:10;100558.20;;;4.70
69545;BMP180;56766;52.260;20.746;2023-01-08T01:13:38;100553.40;;;4.70
69545;BMP180;56766;52.260;20.746;2023-01-08T01:16:05;100543.40;;;4.60
69545;BMP180;56766;52.260;20.746;2023-01-08T01:18:32;100542.60;;;4.58
69545;BMP180;56766;52.260;20.746;2023-01-08T01:20:59;100541.40;;;4.50
69545;BMP180;56766;52.260;20.746;2023-01-08T01:23:25;100542.40;;;4.50
69545;BMP180;56766;52.260;20.746;2023-01-08T01:25:52;100546.60;;;4.50
69545;BMP180;56766;52.260;20.746;2023-01-08T01:28:20;100547.40;;;4.50
69545;BMP180;56766;52.260;20.746;2023-01-08T01:30:57;100548.20;;;4.46
69545;BMP180;56766;52.260;20.746;2023-01-08T01:33:24;100546.80;;;4.40
69545;BMP180;56766;52.260;20.746;2023-01-08T01:36:02;100541.60;;;4.40
69545;BMP180;56766;52.260;20.746;2023-01-08T01:38:29;100542.20;;;4.40
69545;BMP180;56766;52.260;20.746;2023-01-08T01:40:57;100536.60;;;4.36
69545;BMP180;56766;52.260;20.746;2023-01-08T01:43:42;100536.20;;;4.30
69545;BMP180;56766;52.260;20.746;2023-01-08T01:46:36;100529.20;;;4.20
69545;BMP180;56766;52.260;20.746;2023-01-08T01:49:16;100521.20;;;4.20
69545;BMP180;56766;52.260;20.746;2023-01-08T01:51:52;100518.00;;;4.14
69545;BMP180;56766;52.260;20.746;2023-01-08T01:54:22;100523.20;;;4.10
69545;BMP180;56766;52.260;20.746;2023-01-08T01:56:50;100515.80;;;4.10
69545;BMP180;56766;52.260;20.746;2023-01-08T01:59:17;100519.80;;;4.10
69545;BMP180;56766;52.260;20.746;2023-01-08T02:01:44;100513.00;;;4.10
69545;BMP180;56766;52.260;20.746;2023-01-08T02:04:13;100512.20;;;4.10
69545;BMP180;56766;52.260;20.746;2023-01-08T02:07:06;100510.00;;;4.10
69545;BMP180;56766;52.260;20.746;2023-01-08T02:09:55;100517.20;;;4.00
69545;BMP180;56766;52.260;20.746;2023-01-08T02:12:57;100520.40;;;4.00
69545;BMP180;56766;52.260;20.746;2023-01-08T02:15:57;100509.20;;;3.92
69545;BMP180;56766;52.260;20.746;2023-01-08T02:18:59;100494.80;;;3.90
69545;BMP180;56766;52.260;20.746;2023-01-08T02:24:55;100495.20;;;3.90
69545;BMP180;56766;52.260;20.746;2023-01-08T02:27:30;100493.80;;;3.90
69545;BMP180;56766;52.260;20.746;2023-01-08T02:30:04;100488.40;;;3.90
69545;BMP180;56766;52.260;20.746;2023-01-08T02:32:41;100482.40;;;3.90
69545;BMP180;56766;52.260;20.746;2023-01-08T02:35:10;100487.20;;;3.90
69545;BMP180;56766;52.260;20.746;2023-01-08T02:37:39;100484.80;;;3.90
69545;BMP180;56766;52.260;20.746;2023-01-08T02:40:23;100475.00;;;3.90
69545;BMP180;56766;52.260;20.746;2023-01-08T02:43:23;100475.80;;;3.90
69545;BMP180;56766;52.260;20.746;2023-01-08T02:45:58;100468.80;;;3.90
69545;BMP180;56766;52.260;20.746;2023-01-08T02:51:55;100468.40;;;3.90
69545;BMP180;56766;52.260;20.746;2023-01-08T02:54:31;100461.40;;;3.92
69545;BMP180;56766;52.260;20.746;2023-01-08T02:57:11;100464.80;;;4.00
69545;BMP180;56766;52.260;20.746;2023-01-08T02:59:42;100468.20;;;4.00
69545;BMP180;56766;52.260;20.746;2023-01-08T03:02:12;100471.80;;;4.00
69545;BMP180;56766;52.260;20.746;2023-01-08T03:04:53;100466.20;;;4.10
69545;BMP180;56766;52.260;20.746;2023-01-08T03:07:22;100470.60;;;4.10
69545;BMP180;56766;52.260;20.746;2023-01-08T03:09:49;100473.20;;;4.10
69545;BMP180;56766;52.260;20.746;2023-01-08T03:12:28;100464.20;;;4.10
69545;BMP180;56766;52.260;20.746;2023-01-08T03:15:08;100459.60;;;4.10
69545;BMP180;56766;52.260;20.746;2023-01-08T03:17:47;100461.40;;;4.10
69545;BMP180;56766;52.260;20.746;2023-01-08T03:20:20;100455.80;;;4.10
69545;BMP180;56766;52.260;20.746;2023-01-08T03:22:55;100457.00;;;4.10
69545;BMP180;56766;52.260;20.746;2023-01-08T03:25:27;100458.80;;;4.12
69545;BMP180;56766;52.260;20.746;2023-01-08T03:28:04;100451.60;;;4.20
69545;BMP180;56766;52.260;20.746;2023-01-08T03:30:39;100445.20;;;4.20
69545;BMP180;56766;52.260;20.746;2023-01-08T03:33:11;100440.80;;;4.20
69545;BMP180;56766;52.260;20.746;2023-01-08T03:35:44;100443.00;;;4.20
69545;BMP180;56766;52.260;20.746;2023-01-08T03:38:28;100440.40;;;4.16
69545;BMP180;56766;52.260;20.746;2023-01-08T03:41:06;100434.40;;;4.10
69545;BMP180;56766;52.260;20.746;2023-01-08T03:43:35;100430.00;;;4.10
69545;BMP180;56766;52.260;20.746;2023-01-08T03:46:13;100430.40;;;4.08
69545;BMP180;56766;52.260;20.746;2023-01-08T03:48:43;100434.60;;;4.00
69545;BMP180;56766;52.260;20.746;2023-01-08T03:51:10;100432.60;;;3.94
69545;BMP180;56766;52.260;20.746;2023-01-08T03:53:37;100433.60;;;3.90
69545;BMP180;56766;52.260;20.746;2023-01-08T03:56:04;100433.60;;;3.90
69545;BMP180;56766;52.260;20.746;2023-01-08T03:58:31;100433.80;;;3.90
69545;BMP180;56766;52.260;20.746;2023-01-08T04:00:58;100438.20;;;3.88
69545;BMP180;56766;52.260;20.746;2023-01-08T04:03:24;100432.00;;;3.80
69545;BMP180;56766;52.260;20.746;2023-01-08T04:05:51;100433.00;;;3.80
69545;BMP180;56766;52.260;20.746;2023-01-08T04:08:18;100434.00;;;3.80
69545;BMP180;56766;52.260;20.746;2023-01-08T04:10:44;100439.80;;;3.76
69545;BMP180;56766;52.260;20.746;2023-01-08T04:13:11;100438.60;;;3.78
69545;BMP180;56766;52.260;20.746;2023-01-08T04:15:37;100441.80;;;3.78
69545;BMP180;56766;52.260;20.746;2023-01-08T04:18:04;100440.80;;;3.78
69545;BMP180;56766;52.260;20.746;2023-01-08T04:20:31;100440.40;;;3.78
69545;BMP180;56766;52.260;20.746;2023-01-08T04:22:58;100437.80;;;3.78
69545;BMP180;56766;52.260;20.746;2023-01-08T04:25:24;100431.20;;;3.70
69545;BMP180;56766;52.260;20.746;2023-01-08T04:27:51;100429.60;;;3.70
69545;BMP180;56766;52.260;20.746;2023-01-08T04:30:17;100424.40;;;3.70
69545;BMP180;56766;52.260;20.746;2023-01-08T04:32:44;100423.80;;;3.68
69545;BMP180;56766;52.260;20.746;2023-01-08T04:35:11;100425.20;;;3.64
69545;BMP180;56766;52.260;20.746;2023-01-08T04:37:37;100424.20;;;3.60
69545;BMP180;56766;52.260;20.746;2023-01-08T04:40:05;100420.40;;;3.60
69545;BMP180;56766;52.260;20.746;2023-01-08T04:42:32;100422.40;;;3.60
69545;BMP180;56766;52.260;20.746;2023-01-08T04:44:58;100417.60;;;3.56
69545;BMP180;56766;52.260;20.746;2023-01-08T04:47:25;100417.80;;;3.54
69545;BMP180;56766;52.260;20.746;2023-01-08T04:49:52;100410.40;;;3.50
69545;BMP180;56766;52.260;20.746;2023-01-08T04:52:18;100404.80;;;3.50
69545;BMP180;56766;52.260;20.746;2023-01-08T04:54:45;100404.60;;;3.50
69545;BMP180;56766;52.260;20.746;2023-01-08T04:57:12;100409.20;;;3.50
69545;BMP180;56766;52.260;20.746;2023-01-08T04:59:39;100408.80;;;3.50
69545;BMP180;56766;52.260;20.746;2023-01-08T05:02:05;100412.20;;;3.50
69545;BMP180;56766;52.260;20.746;2023-01-08T05:04:32;100408.20;;;3.50
69545;BMP180;56766;52.260;20.746;2023-01-08T05:06:59;100414.00;;;3.48
69545;BMP180;56766;52.260;20.746;2023-01-08T05:09:25;100418.80;;;3.40
69545;BMP180;56766;52.260;20.746;2023-01-08T05:11:52;100417.40;;;3.42
69545;BMP180;56766;52.260;20.746;2023-01-08T05:14:19;100405.20;;;3.42
69545;BMP180;56766;52.260;20.746;2023-01-08T05:16:45;100404.60;;;3.44
69545;BMP180;56766;52.260;20.746;2023-01-08T05:19:13;100408.00;;;3.50
69545;BMP180;56766;52.260;20.746;2023-01-08T05:21:39;100407.60;;;3.50
69545;BMP180;56766;52.260;20.746;2023-01-08T05:24:06;100404.80;;;3.50
69545;BMP180;56766;52.260;20.746;2023-01-08T05:26:35;100408.40;;;3.50
69545;BMP180;56766;52.260;20.746;2023-01-08T05:29:02;100406.20;;;3.50
69545;BMP180;56766;52.260;20.746;2023-01-08T05:31:28;100406.60;;;3.50
69545;BMP180;56766;52.260;20.746;2023-01-08T05:33:57;100413.00;;;3.50
69545;BMP180;56766;52.260;20.746;2023-01-08T05:36:24;100410.40;;;3.50
69545;BMP180;56766;52.260;20.746;2023-01-08T05:38:51;100408.60;;;3.50
69545;BMP180;56766;52.260;20.746;2023-01-08T05:41:18;100400.80;;;3.50
69545;BMP180;56766;52.260;20.746;2023-01-08T05:43:44;100399.20;;;3.50
69545;BMP180;56766;52.260;20.746;2023-01-08T05:46:11;100396.40;;;3.50
69545;BMP180;56766;52.260;20.746;2023-01-08T05:48:38;100398.60;;;3.50
69545;BMP180;56766;52.260;20.746;2023-01-08T05:51:04;100392.80;;;3.58
69545;BMP180;56766;52.260;20.746;2023-01-08T05:53:32;100387.40;;;3.58
69545;BMP180;56766;52.260;20.746;2023-01-08T05:56:06;100386.40;;;3.60
69545;BMP180;56766;52.260;20.746;2023-01-08T05:58:33;100388.80;;;3.60
69545;BMP180;56766;52.260;20.746;2023-01-08T06:01:14;100390.00;;;3.60
69545;BMP180;56766;52.260;20.746;2023-01-08T06:03:43;100388.00;;;3.60
69545;BMP180;56766;52.260;20.746;2023-01-08T06:06:11;100389.80;;;3.60
69545;BMP180;56766;52.260;20.746;2023-01-08T06:08:38;100387.40;;;3.60
69545;BMP180;56766;52.260;20.746;2023-01-08T06:11:09;100388.00;;;3.66
69545;BMP180;56766;52.260;20.746;2023-01-08T06:13:42;100383.40;;;3.68
69545;BMP180;56766;52.260;20.746;2023-01-08T06:16:12;100386.00;;;3.70
69545;BMP180;56766;52.260;20.746;2023-01-08T06:18:39;100385.00;;;3.70
69545;BMP180;56766;52.260;20.746;2023-01-08T06:21:06;100381.00;;;3.70
69545;BMP180;56766;52.260;20.746;2023-01-08T06:23:32;100380.80;;;3.70
69545;BMP180;56766;52.260;20.746;2023-01-08T06:26:01;100386.00;;;3.70
69545;BMP180;56766;52.260;20.746;2023-01-08T06:28:30;100376.80;;;3.70
69545;BMP180;56766;52.260;20.746;2023-01-08T06:30:59;100375.20;;;3.70
69545;BMP180;56766;52.260;20.746;2023-01-08T06:33:26;100374.40;;;3.70
69545;BMP180;56766;52.260;20.746;2023-01-08T06:35:53;100369.60;;;3.72
69545;BMP180;56766;52.260;20.746;2023-01-08T06:38:20;100364.40;;;3.72
69545;BMP180;56766;52.260;20.746;2023-01-08T06:40:47;100364.60;;;3.72
69545;BMP180;56766;52.260;20.746;2023-01-08T06:43:14;100364.20;;;3.70
69545;BMP180;56766;52.260;20.746;2023-01-08T06:45:40;100366.00;;;3.70
69545;BMP180;56766;52.260;20.746;2023-01-08T06:48:07;100349.40;;;3.70
69545;BMP180;56766;52.260;20.746;2023-01-08T06:50:34;100349.20;;;3.70
69545;BMP180;56766;52.260;20.746;2023-01-08T06:53:01;100356.00;;;3.70
69545;BMP180;56766;52.260;20.746;2023-01-08T06:55:27;100357.40;;;3.70
69545;BMP180;56766;52.260;20.746;2023-01-08T06:57:55;100362.20;;;3.62
69545;BMP180;56766;52.260;20.746;2023-01-08T07:00:25;100368.40;;;3.60
69545;BMP180;56766;52.260;20.746;2023-01-08T07:02:54;100356.20;;;3.60
69545;BMP180;56766;52.260;20.746;2023-01-08T07:05:22;100352.60;;;3.60
69545;BMP180;56766;52.260;20.746;2023-01-08T07:07:49;100349.20;;;3.60
69545;BMP180;56766;52.260;20.746;2023-01-08T07:10:16;100353.00;;;3.60
69545;BMP180;56766;52.260;20.746;2023-01-08T07:12:43;100350.00;;;3.60
69545;BMP180;56766;52.260;20.746;2023-01-08T07:15:10;100346.60;;;3.60
69545;BMP180;56766;52.260;20.746;2023-01-08T07:17:37;100344.20;;;3.60
69545;BMP180;56766;52.260;20.746;2023-01-08T07:20:04;100337.60;;;3.60
69545;BMP180;56766;52.260;20.746;2023-01-08T07:22:31;100332.60;;;3.60
69545;BMP180;56766;52.260;20.746;2023-01-08T07:24:58;100341.40;;;3.60
69545;BMP180;56766;52.260;20.746;2023-01-08T07:27:25;100349.00;;;3.60
69545;BMP180;56766;52.260;20.746;2023-01-08T07:29:52;100357.00;;;3.60
69545;BMP180;56766;52.260;20.746;2023-01-08T07:32:21;100353.20;;;3.60
69545;BMP180;56766;52.260;20.746;2023-01-08T07:34:48;100339.00;;;3.60
69545;BMP180;56766;52.260;20.746;2023-01-08T07:37:15;100335.40;;;3.60
69545;BMP180;56766;52.260;20.746;2023-01-08T07:39:41;100326.00;;;3.60
69545;BMP180;56766;52.260;20.746;2023-01-08T07:42:08;100327.40;;;3.60
69545;BMP180;56766;52.260;20.746;2023-01-08T07:44:35;100328.80;;;3.60
69545;BMP180;56766;52.260;20.746;2023-01-08T07:47:01;100332.80;;;3.60
69545;BMP180;56766;52.260;20.746;2023-01-08T07:49:28;100331.20;;;3.60
69545;BMP180;56766;52.260;20.746;2023-01-08T07:51:55;100320.40;;;3.60
69545;BMP180;56766;52.260;20.746;2023-01-08T07:54:22;100324.00;;;3.58
69545;BMP180;56766;52.260;20.746;2023-01-08T07:56:48;100319.80;;;3.60
69545;BMP180;56766;52.260;20.746;2023-01-08T07:59:15;100323.80;;;3.60
69545;BMP180;56766;52.260;20.746;2023-01-08T08:01:41;100318.20;;;3.60
69545;BMP180;56766;52.260;20.746;2023-01-08T08:04:08;100323.80;;;3.60
69545;BMP180;56766;52.260;20.746;2023-01-08T08:06:35;100327.80;;;3.60
69545;BMP180;56766;52.260;20.746;2023-01-08T08:09:01;100318.60;;;3.60
69545;BMP180;56766;52.260;20.746;2023-01-08T08:11:29;100317.60;;;3.68
69545;BMP180;56766;52.260;20.746;2023-01-08T08:13:55;100320.60;;;3.66
69545;BMP180;56766;52.260;20.746;2023-01-08T08:16:22;100319.20;;;3.68
69545;BMP180;56766;52.260;20.746;2023-01-08T08:18:49;100314.00;;;3.68
69545;BMP180;56766;52.260;20.746;2023-01-08T08:21:15;100304.60;;;3.70
69545;BMP180;56766;52.260;20.746;2023-01-08T08:23:42;100305.20;;;3.70
69545;BMP180;56766;52.260;20.746;2023-01-08T08:26:09;100304.00;;;3.66
69545;BMP180;56766;52.260;20.746;2023-01-08T08:28:35;100296.60;;;3.70
69545;BMP180;56766;52.260;20.746;2023-01-08T08:31:02;100289.00;;;3.70
69545;BMP180;56766;52.260;20.746;2023-01-08T08:33:29;100286.60;;;3.70
69545;BMP180;56766;52.260;20.746;2023-01-08T08:35:56;100287.20;;;3.70
69545;BMP180;56766;52.260;20.746;2023-01-08T08:38:22;100292.20;;;3.70
69545;BMP180;56766;52.260;20.746;2023-01-08T08:40:50;100288.60;;;3.70
69545;BMP180;56766;52.260;20.746;2023-01-08T08:43:18;100287.00;;;3.70
69545;BMP180;56766;52.260;20.746;2023-01-08T08:45:44;100285.60;;;3.70
69545;BMP180;56766;52.260;20.746;2023-01-08T08:48:11;100276.60;;;3.70
69545;BMP180;56766;52.260;20.746;2023-01-08T08:50:38;100284.40;;;3.70
69545;BMP180;56766;52.260;20.746;2023-01-08T08:53:06;100286.00;;;3.70
69545;BMP180;56766;52.260;20.746;2023-01-08T08:55:33;100281.60;;;3.70
69545;BMP180;56766;52.260;20.746;2023-01-08T08:58:11;100287.00;;;3.78
69545;BMP180;56766;52.260;20.746;2023-01-08T09:00:42;100287.60;;;3.80
69545;BMP180;56766;52.260;20.746;2023-01-08T09:03:14;100289.00;;;3.80
69545;BMP180;56766;52.260;20.746;2023-01-08T09:05:43;100288.40;;;3.78
69545;BMP180;56766;52.260;20.746;2023-01-08T09:08:11;100287.60;;;3.80
69545;BMP180;56766;52.260;20.746;2023-01-08T09:10:39;100291.00;;;3.80
69545;BMP180;56766;52.260;20.746;2023-01-08T09:13:07;100287.40;;;3.80
69545;BMP180;56766;52.260;20.746;2023-01-08T09:15:37;100285.20;;;3.80
69545;BMP180;56766;52.260;20.746;2023-01-08T09:18:05;100278.00;;;3.80
69545;BMP180;56766;52.260;20.746;2023-01-08T09:20:32;100276.00;;;3.80
69545;BMP180;56766;52.260;20.746;2023-01-08T09:23:01;100270.80;;;3.86
69545;BMP180;56766;52.260;20.746;2023-01-08T09:25:29;100277.60;;;3.90
69545;BMP180;56766;52.260;20.746;2023-01-08T09:28:07;100269.20;;;3.90
69545;BMP180;56766;52.260;20.746;2023-01-08T09:30:35;100265.40;;;4.00
69545;BMP180;56766;52.260;20.746;2023-01-08T09:33:04;100259.80;;;4.00
69545;BMP180;56766;52.260;20.746;2023-01-08T09:35:33;100262.80;;;4.00
69545;BMP180;56766;52.260;20.746;2023-01-08T09:37:59;100268.40;;;4.00
69545;BMP180;56766;52.260;20.746;2023-01-08T09:40:45;100271.20;;;4.00
69545;BMP180;56766;52.260;20.746;2023-01-08T09:43:19;100259.80;;;4.00
69545;BMP180;56766;52.260;20.746;2023-01-08T09:45:54;100260.80;;;4.00
69545;BMP180;56766;52.260;20.746;2023-01-08T09:48:28;100258.00;;;3.98
69545;BMP180;56766;52.260;20.746;2023-01-08T09:50:57;100264.00;;;4.00
69545;BMP180;56766;52.260;20.746;2023-01-08T09:53:25;100263.40;;;4.00
69545;BMP180;56766;52.260;20.746;2023-01-08T09:56:00;100258.20;;;4.00
69545;BMP180;56766;52.260;20.746;2023-01-08T09:58:46;100255.80;;;4.08
69545;BMP180;56766;52.260;20.746;2023-01-08T10:01:24;100258.80;;;4.10
69545;BMP180;56766;52.260;20.746;2023-01-08T10:04:18;100260.20;;;4.18
69545;BMP180;56766;52.260;20.746;2023-01-08T10:07:15;100255.00;;;4.22
69545;BMP180;56766;52.260;20.746;2023-01-08T10:09:48;100239.40;;;4.30
69545;BMP180;56766;52.260;20.746;2023-01-08T10:12:27;100228.80;;;4.30
69545;BMP180;56766;52.260;20.746;2023-01-08T10:15:07;100223.80;;;4.40
69545;BMP180;56766;52.260;20.746;2023-01-08T10:17:42;100225.80;;;4.40
69545;BMP180;56766;52.260;20.746;2023-01-08T10:20:20;100223.20;;;4.40
69545;BMP180;56766;52.260;20.746;2023-01-08T10:22:49;100218.80;;;4.50
69545;BMP180;56766;52.260;20.746;2023-01-08T10:25:26;100217.40;;;4.50
69545;BMP180;56766;52.260;20.746;2023-01-08T10:27:59;100207.20;;;4.50
69545;BMP180;56766;52.260;20.746;2023-01-08T10:33:04;100193.40;;;4.50
69545;BMP180;56766;52.260;20.746;2023-01-08T10:35:39;100184.80;;;4.50
69545;BMP180;56766;52.260;20.746;2023-01-08T10:38:23;100166.80;;;4.50
69545;BMP180;56766;52.260;20.746;2023-01-08T10:40:52;100174.20;;;4.50
69545;BMP180;56766;52.260;20.746;2023-01-08T10:46:45;100173.60;;;4.70
69545;BMP180;56766;52.260;20.746;2023-01-08T10:49:37;100166.60;;;4.80
69545;BMP180;56766;52.260;20.746;2023-01-08T10:52:33;100162.40;;;4.90
69545;BMP180;56766;52.260;20.746;2023-01-08T10:55:31;100157.60;;;5.00
69545;BMP180;56766;52.260;20.746;2023-01-08T11:00:36;100163.60;;;5.00
69545;BMP180;56766;52.260;20.746;2023-01-08T11:03:07;100160.40;;;5.00
69545;BMP180;56766;52.260;20.746;2023-01-08T11:05:41;100150.20;;;4.98
69545;BMP180;56766;52.260;20.746;2023-01-08T11:08:19;100154.20;;;4.90
69545;BMP180;56766;52.260;20.746;2023-01-08T11:11:00;100152.40;;;4.90
69545;BMP180;56766;52.260;20.746;2023-01-08T11:13:28;100151.40;;;4.90
69545;BMP180;56766;52.260;20.746;2023-01-08T11:16:05;100145.80;;;4.82
69545;BMP180;56766;52.260;20.746;2023-01-08T11:18:47;100145.60;;;4.80
69545;BMP180;56766;52.260;20.746;2023-01-08T11:21:25;100143.20;;;4.80
69545;BMP180;56766;52.260;20.746;2023-01-08T11:24:24;100145.00;;;4.80
69545;BMP180;56766;52.260;20.746;2023-01-08T11:29:56;100138.00;;;4.74
69545;BMP180;56766;52.260;20.746;2023-01-08T11:35:20;100130.60;;;4.70
69545;BMP180;56766;52.260;20.746;2023-01-08T11:37:54;100134.40;;;4.70
69545;BMP180;56766;52.260;20.746;2023-01-08T11:53:01;100128.20;;;4.60
69545;BMP180;56766;52.260;20.746;2023-01-08T11:58:14;100124.20;;;4.60
69545;BMP180;56766;52.260;20.746;2023-01-08T12:03:48;100124.20;;;4.60
69545;BMP180;56766;52.260;20.746;2023-01-08T12:06:40;100122.20;;;4.54
69545;BMP180;56766;52.260;20.746;2023-01-08T12:09:43;100109.00;;;4.50
69545;BMP180;56766;52.260;20.746;2023-01-08T12:28:39;100094.20;;;4.30
69545;BMP180;56766;52.260;20.746;2023-01-08T12:34:13;100095.00;;;4.24
69545;BMP180;56766;52.260;20.746;2023-01-08T12:37:11;100100.00;;;4.22
69545;BMP180;56766;52.260;20.746;2023-01-08T12:39:52;100095.60;;;4.30
69545;BMP180;56766;52.260;20.746;2023-01-08T12:42:28;100089.60;;;4.30
69545;BMP180;56766;52.260;20.746;2023-01-08T12:45:00;100097.40;;;4.30
69545;BMP180;56766;52.260;20.746;2023-01-08T12:47:36;100097.40;;;4.22
69545;BMP180;56766;52.260;20.746;2023-01-08T12:50:26;100094.40;;;4.20
69545;BMP180;56766;52.260;20.746;2023-01-08T12:53:13;100092.00;;;4.20
69545;BMP180;56766;52.260;20.746;2023-01-08T12:56:26;100099.40;;;4.10
69545;BMP180;56766;52.260;20.746;2023-01-08T13:04:52;100086.00;;;4.10
69545;BMP180;56766;52.260;20.746;2023-01-08T13:07:34;100082.40;;;4.10
69545;BMP180;56766;52.260;20.746;2023-01-08T13:10:22;100077.20;;;4.10
69545;BMP180;56766;52.260;20.746;2023-01-08T13:12:54;100076.60;;;4.00
69545;BMP180;56766;52.260;20.746;2023-01-08T13:15:27;100070.00;;;4.00
69545;BMP180;56766;52.260;20.746;2023-01-08T13:18:21;100078.20;;;4.00
69545;BMP180;56766;52.260;20.746;2023-01-08T13:20:59;100079.40;;;3.90
69545;BMP180;56766;52.260;20.746;2023-01-08T13:23:31;100078.20;;;3.90
69545;BMP180;56766;52.260;20.746;2023-01-08T13:26:04;100078.00;;;3.90
69545;BMP180;56766;52.260;20.746;2023-01-08T13:28:44;100078.00;;;3.90
69545;BMP180;56766;52.260;20.746;2023-01-08T13:33:49;100080.00;;;3.80
69545;BMP180;56766;52.260;20.746;2023-01-08T13:41:55;100068.20;;;3.80
69545;BMP180;56766;52.260;20.746;2023-01-08T13:44:31;100073.60;;;3.78
69545;BMP180;56766;52.260;20.746;2023-01-08T13:47:17;100077.00;;;3.70
69545;BMP180;56766;52.260;20.746;2023-01-08T13:49:50;100066.80;;;3.70
69545;BMP180;56766;52.260;20.746;2023-01-08T13:52:47;100076.60;;;3.70
69545;BMP180;56766;52.260;20.746;2023-01-08T13:55:38;100078.00;;;3.70
69545;BMP180;56766;52.260;20.746;2023-01-08T13:58:18;100078.40;;;3.70
69545;BMP180;56766;52.260;20.746;2023-01-08T14:00:52;100077.00;;;3.68
69545;BMP180;56766;52.260;20.746;2023-01-08T14:03:36;100072.00;;;3.60
69545;BMP180;56766;52.260;20.746;2023-01-08T14:06:26;100072.20;;;3.60
69545;BMP180;56766;52.260;20.746;2023-01-08T14:09:00;100067.20;;;3.64
69545;BMP180;56766;52.260;20.746;2023-01-08T14:11:43;100064.40;;;3.68
69545;BMP180;56766;52.260;20.746;2023-01-08T14:14:16;100060.80;;;3.70
69545;BMP180;56766;52.260;20.746;2023-01-08T14:16:47;100058.20;;;3.60
69545;BMP180;56766;52.260;20.746;2023-01-08T14:19:19;100056.60;;;3.60
69545;BMP180;56766;52.260;20.746;2023-01-08T14:21:52;100049.60;;;3.60
69545;BMP180;56766;52.260;20.746;2023-01-08T14:24:24;100047.60;;;3.60
69545;BMP180;56766;52.260;20.746;2023-01-08T14:26:58;100052.00;;;3.60
69545;BMP180;56766;52.260;20.746;2023-01-08T14:29:29;100046.20;;;3.60
69545;BMP180;56766;52.260;20.746;2023-01-08T14:32:00;100051.00;;;3.52
69545;BMP180;56766;52.260;20.746;2023-01-08T14:34:30;100044.00;;;3.50
69545;BMP180;56766;52.260;20.746;2023-01-08T14:36:57;100043.20;;;3.50
69545;BMP180;56766;52.260;20.746;2023-01-08T14:39:33;100046.20;;;3.50
69545;BMP180;56766;52.260;20.746;2023-01-08T14:42:16;100037.20;;;3.50
69545;BMP180;56766;52.260;20.746;2023-01-08T14:45:16;100038.60;;;3.50
69545;BMP180;56766;52.260;20.746;2023-01-08T14:47:54;100041.60;;;3.50
69545;BMP180;56766;52.260;20.746;2023-01-08T14:50:37;100036.60;;;3.48
69545;BMP180;56766;52.260;20.746;2023-01-08T14:53:22;100035.20;;;3.40
69545;BMP180;56766;52.260;20.746;2023-01-08T14:55:52;100033.00;;;3.40
69545;BMP180;56766;52.260;20.746;2023-01-08T14:58:37;100021.60;;;3.40
69545;BMP180;56766;52.260;20.746;2023-01-08T15:01:29;100023.80;;;3.40
69545;BMP180;56766;52.260;20.746;2023-01-08T15:04:13;100021.60;;;3.40
69545;BMP180;56766;52.260;20.746;2023-01-08T15:06:42;100022.80;;;3.40
69545;BMP180;56766;52.260;20.746;2023-01-08T15:09:34;100018.20;;;3.40
69545;BMP180;56766;52.260;20.746;2023-01-08T15:12:05;100018.00;;;3.40
69545;BMP180;56766;52.260;20.746;2023-01-08T15:14:33;100015.80;;;3.40
69545;BMP180;56766;52.260;20.746;2023-01-08T15:17:17;100013.60;;;3.40
69545;BMP180;56766;52.260;20.746;2023-01-08T15:19:57;100011.80;;;3.40
69545;BMP180;56766;52.260;20.746;2023-01-08T15:22:28;100012.60;;;3.40
69545;BMP180;56766;52.260;20.746;2023-01-08T15:25:01;100016.00;;;3.40
69545;BMP180;56766;52.260;20.746;2023-01-08T15:27:29;100013.80;;;3.40
69545;BMP180;56766;52.260;20.746;2023-01-08T15:30:18;100011.20;;;3.40
69545;BMP180;56766;52.260;20.746;2023-01-08T15:32:49;100007.60;;;3.44
69545;BMP180;56766;52.260;20.746;2023-01-08T15:35:17;100011.60;;;3.44
69545;BMP180;56766;52.260;20.746;2023-01-08T15:37:45;100017.40;;;3.50
69545;BMP180;56766;52.260;20.746;2023-01-08T15:40:12;100016.00;;;3.50